createdAt,value
2019-03-11T00:00:25.313Z,99383.89
2019-03-11T00:01:33.206Z,99383.89
2019-03-11T00:02:39.066Z,99378.88
2019-03-11T00:03:43.904Z,99383.37
2019-03-11T00:04:48.624Z,99392.91
2019-03-11T00:05:53.337Z,99386.40
2019-03-11T00:06:58.189Z,99392.59
2019-03-11T00:08:02.984Z,99400.28
2019-03-11T00:09:07.702Z,99389.27
2019-03-11T00:10:14.034Z,99391.09
2019-03-11T00:11:18.835Z,99397.96
2019-03-11T00:12:23.626Z,99403.31
2019-03-11T00:13:31.020Z,99406.47
2019-03-11T00:14:35.721Z,99402.13
2019-03-11T00:15:41.524Z,99397.31
2019-03-11T00:16:46.317Z,99408.81
2019-03-11T00:17:51.194Z,99404.48
2019-03-11T00:18:56.183Z,99411.32
2019-03-11T00:20:00.971Z,99410.98
2019-03-11T00:21:05.777Z,99419.01
2019-03-11T00:22:10.497Z,99409.84
2019-03-11T00:23:15.298Z,99409.00
2019-03-11T00:24:20.181Z,99407.66
2019-03-11T00:25:25.074Z,99404.66
2019-03-11T00:26:29.874Z,99403.52
2019-03-11T00:27:34.674Z,99408.54
2019-03-11T00:28:39.471Z,99409.02
2019-03-11T00:29:44.385Z,99413.03
2019-03-11T00:30:49.182Z,99419.38
2019-03-11T00:31:54.055Z,99420.39
2019-03-11T00:32:58.811Z,99424.40
2019-03-11T00:34:03.536Z,99424.92
2019-03-11T00:35:10.241Z,99418.73
2019-03-11T00:36:15.118Z,99414.36
2019-03-11T00:37:19.942Z,99421.04
2019-03-11T00:38:24.757Z,99408.36
2019-03-11T00:39:29.483Z,99418.04
2019-03-11T00:40:34.287Z,99424.91
2019-03-11T00:41:39.006Z,99422.73
2019-03-11T00:42:43.911Z,99423.73
2019-03-11T00:43:48.626Z,99430.73
2019-03-11T00:44:53.338Z,99428.75
2019-03-11T00:45:58.143Z,99438.09
2019-03-11T00:47:02.941Z,99432.75
2019-03-11T00:48:07.764Z,99437.28
2019-03-11T00:49:12.557Z,99432.95
2019-03-11T00:50:17.401Z,99434.77
2019-03-11T00:51:22.203Z,99434.77
2019-03-11T00:52:26.955Z,99439.30
2019-03-11T00:53:31.735Z,99435.78
2019-03-11T00:54:36.533Z,99438.64
2019-03-11T00:55:41.250Z,99446.14
2019-03-11T00:56:46.061Z,99444.80
2019-03-11T00:57:50.766Z,99437.79
2019-03-11T00:58:55.569Z,99455.16
2019-03-11T01:00:00.445Z,99449.48
2019-03-11T01:01:05.342Z,99450.82
2019-03-11T01:02:10.241Z,99456.16
2019-03-11T01:03:15.033Z,99453.16
2019-03-11T01:04:19.750Z,99454.98
2019-03-11T01:05:24.539Z,99454.98
2019-03-11T01:06:29.330Z,99454.50
2019-03-11T01:07:34.135Z,99453.64
2019-03-11T01:08:38.930Z,99463.84
2019-03-11T01:09:43.724Z,99462.18
2019-03-11T01:10:48.467Z,99461.84
2019-03-11T01:11:53.359Z,99464.84
2019-03-11T01:12:58.215Z,99465.86
2019-03-11T01:14:03.001Z,99471.20
2019-03-11T01:15:10.179Z,99469.20
2019-03-11T01:16:14.970Z,99468.69
2019-03-11T01:17:19.770Z,99469.20
2019-03-11T01:18:24.564Z,99472.36
2019-03-11T01:19:29.489Z,99467.87
2019-03-11T01:20:34.282Z,99468.88
2019-03-11T01:21:39.142Z,99474.70
2019-03-11T01:22:43.943Z,99473.89
2019-03-11T01:23:48.871Z,99475.22
2019-03-11T01:24:53.671Z,99474.22
2019-03-11T01:25:58.466Z,99477.56
2019-03-11T01:27:03.303Z,99473.03
2019-03-11T01:28:08.117Z,99473.72
2019-03-11T01:29:12.923Z,99483.91
2019-03-11T01:30:18.215Z,99474.23
2019-03-11T01:31:23.127Z,99477.91
2019-03-11T01:32:27.909Z,99481.59
2019-03-11T01:33:32.629Z,99483.25
2019-03-11T01:34:37.589Z,99483.73
2019-03-11T01:35:42.230Z,99484.26
2019-03-11T01:36:46.991Z,99483.92
2019-03-11T01:37:51.732Z,99483.92
2019-03-11T01:38:56.513Z,99486.59
2019-03-11T01:40:01.188Z,99486.27
2019-03-11T01:41:05.974Z,99491.09
2019-03-11T01:42:10.781Z,99491.61
2019-03-11T01:43:15.493Z,99492.09
2019-03-11T01:44:20.297Z,99495.09
2019-03-11T01:45:25.199Z,99491.61
2019-03-11T01:46:30.131Z,99495.28
2019-03-11T01:47:34.942Z,99494.95
2019-03-11T01:48:39.654Z,99491.95
2019-03-11T01:49:44.310Z,99499.64
2019-03-11T01:50:49.036Z,99500.64
2019-03-11T01:51:53.854Z,99504.13
2019-03-11T01:52:58.652Z,99497.97
2019-03-11T01:54:03.371Z,99494.45
2019-03-11T01:55:10.623Z,99502.98
2019-03-11T01:56:15.343Z,99504.31
2019-03-11T01:57:19.982Z,99505.13
2019-03-11T01:58:24.894Z,99510.98
2019-03-11T01:59:29.781Z,99508.80
2019-03-11T02:00:34.600Z,99514.63
2019-03-11T02:01:39.324Z,99517.83
2019-03-11T02:02:44.208Z,99520.49
2019-03-11T02:03:49.131Z,99520.98
2019-03-11T02:04:53.974Z,99524.98
2019-03-11T02:05:58.808Z,99522.83
2019-03-11T02:07:03.740Z,99516.64
2019-03-11T02:08:08.438Z,99530.33
2019-03-11T02:09:14.784Z,99528.66
2019-03-11T02:10:19.984Z,99525.50
2019-03-11T02:11:24.868Z,99524.16
2019-03-11T02:12:29.566Z,99522.98
2019-03-11T02:13:34.286Z,99530.66
2019-03-11T02:14:39.015Z,99527.99
2019-03-11T02:15:43.821Z,99530.66
2019-03-11T02:16:48.749Z,99530.33
2019-03-11T02:17:53.636Z,99527.33
2019-03-11T02:18:58.382Z,99528.67
2019-03-11T02:20:10.165Z,99531.86
2019-03-11T02:21:14.973Z,99533.19
2019-03-11T02:22:19.909Z,99538.02
2019-03-11T02:23:24.715Z,99532.34
2019-03-11T02:24:29.547Z,99534.20
2019-03-11T02:25:34.335Z,99533.34
2019-03-11T02:26:39.191Z,99535.20
2019-03-11T02:27:43.999Z,99535.53
2019-03-11T02:28:48.829Z,99532.01
2019-03-11T02:29:53.627Z,99539.87
2019-03-11T02:30:58.429Z,99537.68
2019-03-11T02:32:03.084Z,99542.02
2019-03-11T02:33:07.910Z,99536.34
2019-03-11T02:34:12.701Z,99550.55
2019-03-11T02:35:31.058Z,99557.70
2019-03-11T02:36:35.849Z,99558.71
2019-03-11T02:37:40.648Z,99556.03
2019-03-11T02:38:45.420Z,99553.04
2019-03-11T02:39:50.223Z,99554.89
2019-03-11T02:40:55.025Z,99557.23
2019-03-11T02:41:59.887Z,99565.05
2019-03-11T02:43:04.783Z,99562.38
2019-03-11T02:44:09.621Z,99564.05
2019-03-11T02:45:14.491Z,99562.71
2019-03-11T02:46:19.294Z,99563.05
2019-03-11T02:47:24.099Z,99562.04
2019-03-11T02:48:28.949Z,99566.05
2019-03-11T02:49:33.797Z,99566.05
2019-03-11T02:50:38.593Z,99559.70
2019-03-11T02:51:43.384Z,99569.05
2019-03-11T02:52:48.229Z,99568.05
2019-03-11T02:53:52.934Z,99569.71
2019-03-11T02:54:57.658Z,99572.38
2019-03-11T02:56:02.449Z,99570.72
2019-03-11T02:57:07.329Z,99572.05
2019-03-11T02:58:13.243Z,99574.72
2019-03-11T02:59:18.070Z,99578.23
2019-03-11T03:00:22.871Z,99577.39
2019-03-11T03:01:38.079Z,99572.90
2019-03-11T03:02:44.534Z,99580.06
2019-03-11T03:04:00.001Z,99565.70
2019-03-11T03:05:08.185Z,99573.38
2019-03-11T03:06:14.546Z,99576.05
2019-03-11T03:07:19.350Z,99572.23
2019-03-11T03:08:24.165Z,99574.73
2019-03-11T03:09:31.544Z,99567.23
2019-03-11T03:10:35.443Z,99570.39
2019-03-11T03:11:40.196Z,99574.91
2019-03-11T03:12:45.000Z,99580.25
2019-03-11T03:13:49.806Z,99572.73
2019-03-11T03:14:54.603Z,99577.73
2019-03-11T03:15:59.402Z,99572.06
2019-03-11T03:17:57.949Z,99564.56
2019-03-11T03:18:59.350Z,99577.73
2019-03-11T03:20:00.764Z,99574.25
2019-03-11T03:21:02.269Z,99578.73
2019-03-11T03:22:03.647Z,99569.73
2019-03-11T03:23:05.208Z,99580.41
2019-03-11T03:24:07.580Z,99580.59
2019-03-11T03:25:10.724Z,99586.75
2019-03-11T03:26:12.233Z,99585.41
2019-03-11T03:27:13.653Z,99589.75
2019-03-11T03:28:15.091Z,99585.75
2019-03-11T03:29:16.604Z,99584.41
2019-03-11T03:30:18.792Z,99587.59
2019-03-11T03:31:20.330Z,99586.59
2019-03-11T03:32:21.692Z,99590.59
2019-03-11T03:33:23.128Z,99591.42
2019-03-11T03:34:24.473Z,99585.75
2019-03-11T03:35:25.888Z,99590.59
2019-03-11T03:36:27.402Z,99585.75
2019-03-11T03:37:28.910Z,99584.27
2019-03-11T03:38:34.223Z,99581.41
2019-03-11T03:39:35.625Z,99586.27
2019-03-11T03:40:37.139Z,99586.75
2019-03-11T03:41:38.788Z,99586.75
2019-03-11T03:42:40.337Z,99593.94
2019-03-11T03:43:41.769Z,99583.75
2019-03-11T03:44:52.654Z,99585.08
2019-03-11T03:45:54.043Z,99582.75
2019-03-11T03:46:55.462Z,99583.27
2019-03-11T03:47:57.680Z,99589.09
2019-03-11T03:48:59.076Z,99584.75
2019-03-11T03:50:00.529Z,99585.08
2019-03-11T03:51:01.966Z,99593.76
2019-03-11T03:52:03.351Z,99588.94
2019-03-11T03:53:05.225Z,99584.08
2019-03-11T03:54:06.728Z,99591.09
2019-03-11T03:55:09.101Z,99594.28
2019-03-11T03:56:10.687Z,99590.27
2019-03-11T03:57:12.189Z,99593.09
2019-03-11T03:58:13.789Z,99589.09
2019-03-11T03:59:15.208Z,99604.11
2019-03-11T04:00:16.722Z,99590.42
2019-03-11T04:01:18.118Z,99598.77
2019-03-11T04:02:19.529Z,99594.43
2019-03-11T04:03:21.017Z,99594.95
2019-03-11T04:04:22.449Z,99596.09
2019-03-11T04:05:23.993Z,99603.29
2019-03-11T04:06:25.494Z,99597.10
2019-03-11T04:07:26.884Z,99598.28
2019-03-11T04:08:28.295Z,99599.77
2019-03-11T04:09:29.708Z,99597.44
2019-03-11T04:10:32.897Z,99594.43
2019-03-11T04:11:34.430Z,99594.95
2019-03-11T04:12:35.846Z,99600.10
2019-03-11T04:13:37.317Z,99599.77
2019-03-11T04:14:38.722Z,99609.63
2019-03-11T04:15:40.302Z,99598.10
2019-03-11T04:16:41.695Z,99599.11
2019-03-11T04:17:43.511Z,99595.95
2019-03-11T04:18:47.350Z,99607.63
2019-03-11T04:19:48.936Z,99604.95
2019-03-11T04:20:50.347Z,99602.29
2019-03-11T04:21:52.235Z,99606.78
2019-03-11T04:22:53.747Z,99601.44
2019-03-11T04:23:55.113Z,99601.96
2019-03-11T04:24:56.603Z,99608.11
2019-03-11T04:25:57.970Z,99606.45
2019-03-11T04:27:03.033Z,99603.45
2019-03-11T04:28:04.819Z,99604.27
2019-03-11T04:29:06.321Z,99607.30
2019-03-11T04:30:13.076Z,99608.11
2019-03-11T04:31:14.487Z,99608.27
2019-03-11T04:32:15.893Z,99616.97
2019-03-11T04:33:17.284Z,99614.45
2019-03-11T04:34:18.654Z,99608.78
2019-03-11T04:35:20.046Z,99614.61
2019-03-11T04:36:21.417Z,99607.45
2019-03-11T04:37:22.839Z,99611.94
2019-03-11T04:38:24.225Z,99611.45
2019-03-11T04:39:25.637Z,99614.13
2019-03-11T04:40:27.048Z,99611.12
2019-03-11T04:41:28.466Z,99613.79
2019-03-11T04:42:29.876Z,99620.95
2019-03-11T04:43:31.308Z,99619.61
2019-03-11T04:44:32.677Z,99609.78
2019-03-11T04:45:34.080Z,99627.14
2019-03-11T04:46:35.442Z,99627.63
2019-03-11T04:47:36.844Z,99625.80
2019-03-11T04:48:38.329Z,99617.80
2019-03-11T04:49:39.854Z,99615.61
2019-03-11T04:50:41.266Z,99623.62
2019-03-11T04:51:42.662Z,99623.28
2019-03-11T04:52:44.176Z,99625.47
2019-03-11T04:53:45.577Z,99614.80
2019-03-11T04:54:46.953Z,99627.47
2019-03-11T04:55:48.349Z,99627.47
2019-03-11T04:56:49.731Z,99621.80
2019-03-11T04:57:53.309Z,99627.63
2019-03-11T04:58:58.293Z,99634.48
2019-03-11T04:59:59.704Z,99628.63
2019-03-11T05:01:01.212Z,99627.47
2019-03-11T05:02:02.616Z,99639.97
2019-03-11T05:03:04.027Z,99635.48
2019-03-11T05:04:05.425Z,99631.95
2019-03-11T05:05:07.003Z,99635.96
2019-03-11T05:06:08.504Z,99643.48
2019-03-11T05:07:09.977Z,99641.15
2019-03-11T05:08:11.376Z,99634.81
2019-03-11T05:09:12.913Z,99637.97
2019-03-11T05:10:16.352Z,99638.81
2019-03-11T05:11:17.633Z,99635.81
2019-03-11T05:12:19.049Z,99642.81
2019-03-11T05:13:20.466Z,99645.97
2019-03-11T05:14:21.965Z,99645.16
2019-03-11T05:15:23.340Z,99642.97
2019-03-11T05:16:24.741Z,99643.48
2019-03-11T05:17:26.218Z,99642.15
2019-03-11T05:18:27.626Z,99649.97
2019-03-11T05:19:29.370Z,99640.48
2019-03-11T05:20:30.744Z,99639.15
2019-03-11T05:21:32.149Z,99640.48
2019-03-11T05:22:33.529Z,99646.30
2019-03-11T05:23:36.020Z,99641.48
2019-03-11T05:24:37.509Z,99636.63
2019-03-11T05:25:38.933Z,99641.15
2019-03-11T05:26:40.458Z,99644.64
2019-03-11T05:27:42.026Z,99644.64
2019-03-11T05:28:43.491Z,99647.82
2019-03-11T05:29:44.973Z,99644.16
2019-03-11T05:30:46.470Z,99642.15
2019-03-11T05:31:47.853Z,99650.48
2019-03-11T05:32:49.240Z,99647.82
2019-03-11T05:33:50.632Z,99651.48
2019-03-11T05:34:52.313Z,99641.81
2019-03-11T05:35:53.708Z,99651.97
2019-03-11T05:36:55.140Z,99649.82
2019-03-11T05:37:56.508Z,99656.49
2019-03-11T05:38:58.911Z,99651.16
2019-03-11T05:40:00.376Z,99659.16
2019-03-11T05:41:01.723Z,99658.83
2019-03-11T05:42:03.106Z,99656.64
2019-03-11T05:43:04.622Z,99665.50
2019-03-11T05:44:06.117Z,99664.98
2019-03-11T05:45:16.092Z,99668.17
2019-03-11T05:46:17.456Z,99665.50
2019-03-11T05:47:19.048Z,99668.98
2019-03-11T05:48:20.419Z,99668.98
2019-03-11T05:49:21.912Z,99666.50
2019-03-11T05:50:23.307Z,99673.32
2019-03-11T05:51:31.392Z,99673.84
2019-03-11T05:52:27.985Z,99673.84
2019-03-11T05:53:29.379Z,99673.84
2019-03-11T05:54:30.770Z,99675.98
2019-03-11T05:55:32.173Z,99674.84
2019-03-11T05:56:33.548Z,99668.17
2019-03-11T05:57:34.949Z,99672.31
2019-03-11T05:58:36.329Z,99685.84
2019-03-11T05:59:37.876Z,99680.99
2019-03-11T06:00:39.528Z,99686.84
2019-03-11T06:01:40.921Z,99688.18
2019-03-11T06:02:42.304Z,99688.52
2019-03-11T06:03:43.697Z,99687.66
2019-03-11T06:04:45.075Z,99682.51
2019-03-11T06:05:46.481Z,99686.00
2019-03-11T06:06:47.856Z,99682.84
2019-03-11T06:07:49.252Z,99693.85
2019-03-11T06:08:50.621Z,99691.19
2019-03-11T06:09:52.020Z,99691.52
2019-03-11T06:10:53.396Z,99694.19
2019-03-11T06:11:54.823Z,99684.18
2019-03-11T06:12:56.306Z,99692.19
2019-03-11T06:13:58.706Z,99687.86
2019-03-11T06:15:00.347Z,99685.86
2019-03-11T06:16:01.785Z,99693.20
2019-03-11T06:17:03.368Z,99698.35
2019-03-11T06:18:04.776Z,99699.53
2019-03-11T06:19:06.299Z,99700.54
2019-03-11T06:20:17.967Z,99704.73
2019-03-11T06:21:21.293Z,99703.06
2019-03-11T06:22:23.988Z,99702.88
2019-03-11T06:23:25.372Z,99707.89
2019-03-11T06:24:26.773Z,99707.07
2019-03-11T06:25:28.153Z,99706.41
2019-03-11T06:26:29.548Z,99700.88
2019-03-11T06:27:31.042Z,99705.92
2019-03-11T06:28:32.452Z,99701.39
2019-03-11T06:29:33.836Z,99703.06
2019-03-11T06:30:35.619Z,99707.40
2019-03-11T06:31:37.004Z,99698.89
2019-03-11T06:32:38.406Z,99702.90
2019-03-11T06:33:39.782Z,99699.41
2019-03-11T06:34:41.184Z,99705.23
2019-03-11T06:35:42.567Z,99710.59
2019-03-11T06:36:43.961Z,99719.95
2019-03-11T06:37:45.496Z,99709.92
2019-03-11T06:38:46.785Z,99703.92
2019-03-11T06:39:48.179Z,99708.59
2019-03-11T06:40:49.626Z,99700.89
2019-03-11T06:41:51.035Z,99711.91
2019-03-11T06:42:52.431Z,99712.75
2019-03-11T06:43:53.911Z,99708.20
2019-03-11T06:44:55.308Z,99715.73
2019-03-11T06:45:56.789Z,99713.53
2019-03-11T06:46:58.189Z,99714.85
2019-03-11T06:48:00.581Z,99714.55
2019-03-11T06:49:01.984Z,99716.02
2019-03-11T06:50:05.804Z,99716.52
2019-03-11T06:51:07.315Z,99712.17
2019-03-11T06:52:08.734Z,99709.47
2019-03-11T06:53:10.137Z,99711.80
2019-03-11T06:54:11.516Z,99717.81
2019-03-11T06:55:13.209Z,99714.80
2019-03-11T06:56:14.587Z,99706.94
2019-03-11T06:57:16.186Z,99707.08
2019-03-11T06:58:17.658Z,99709.41
2019-03-11T06:59:19.168Z,99711.07
2019-03-11T07:00:21.052Z,99700.70
2019-03-11T07:01:22.523Z,99715.25
2019-03-11T07:02:23.905Z,99695.52
2019-03-11T07:03:25.324Z,99707.70
2019-03-11T07:04:26.696Z,99716.05
2019-03-11T07:05:28.094Z,99710.55
2019-03-11T07:06:29.576Z,99714.56
2019-03-11T07:07:30.970Z,99724.09
2019-03-11T07:08:32.512Z,99719.11
2019-03-11T07:09:33.910Z,99722.59
2019-03-11T07:10:35.286Z,99716.43
2019-03-11T07:11:36.800Z,99719.44
2019-03-11T07:12:38.187Z,99730.47
2019-03-11T07:13:39.781Z,99721.92
2019-03-11T07:14:41.186Z,99723.59
2019-03-11T07:15:42.690Z,99729.27
2019-03-11T07:16:44.059Z,99731.94
2019-03-11T07:17:45.462Z,99725.91
2019-03-11T07:18:47.860Z,99728.10
2019-03-11T07:19:49.240Z,99733.45
2019-03-11T07:20:50.631Z,99742.82
2019-03-11T07:21:52.024Z,99742.30
2019-03-11T07:22:53.408Z,99744.30
2019-03-11T07:23:54.809Z,99742.14
2019-03-11T07:24:56.185Z,99737.11
2019-03-11T07:25:57.580Z,99745.63
2019-03-11T07:26:58.954Z,99741.46
2019-03-11T07:28:06.947Z,99746.29
2019-03-11T07:29:08.321Z,99749.16
2019-03-11T07:30:12.220Z,99745.47
2019-03-11T07:31:13.598Z,99742.63
2019-03-11T07:32:14.964Z,99744.30
2019-03-11T07:33:16.353Z,99744.97
2019-03-11T07:34:17.853Z,99743.30
2019-03-11T07:35:19.353Z,99745.16
2019-03-11T07:36:20.740Z,99742.64
2019-03-11T07:37:22.232Z,99740.49
2019-03-11T07:38:23.726Z,99758.89
2019-03-11T07:39:25.122Z,99750.53
2019-03-11T07:40:30.070Z,99745.02
2019-03-11T07:41:29.798Z,99748.54
2019-03-11T07:42:31.206Z,99750.85
2019-03-11T07:43:32.580Z,99750.85
2019-03-11T07:44:33.988Z,99753.04
2019-03-11T07:45:35.568Z,99749.52
2019-03-11T07:46:36.961Z,99746.84
2019-03-11T07:47:38.414Z,99751.21
2019-03-11T07:48:39.940Z,99745.34
2019-03-11T07:49:41.325Z,99751.21
2019-03-11T07:50:42.763Z,99754.53
2019-03-11T07:51:44.044Z,99751.38
2019-03-11T07:52:45.443Z,99751.38
2019-03-11T07:53:46.820Z,99753.72
2019-03-11T07:54:48.222Z,99755.38
2019-03-11T07:55:49.755Z,99760.58
2019-03-11T07:56:51.145Z,99763.25
2019-03-11T07:57:52.527Z,99755.23
2019-03-11T07:58:53.923Z,99766.75
2019-03-11T07:59:55.312Z,99757.38
2019-03-11T08:00:56.717Z,99772.09
2019-03-11T08:01:58.092Z,99768.94
2019-03-11T08:02:59.663Z,99767.41
2019-03-11T08:04:01.035Z,99766.59
2019-03-11T08:05:04.025Z,99764.92
2019-03-11T08:06:05.514Z,99767.27
2019-03-11T08:07:07.905Z,99772.63
2019-03-11T08:08:09.334Z,99782.80
2019-03-11T08:09:10.880Z,99778.30
2019-03-11T08:10:20.135Z,99775.30
2019-03-11T08:11:21.633Z,99771.28
2019-03-11T08:12:23.004Z,99778.80
2019-03-11T08:13:24.408Z,99780.98
2019-03-11T08:14:25.776Z,99777.97
2019-03-11T08:15:27.180Z,99783.48
2019-03-11T08:16:28.804Z,99784.66
2019-03-11T08:17:30.194Z,99777.97
2019-03-11T08:18:35.260Z,99769.09
2019-03-11T08:19:36.702Z,99773.95
2019-03-11T08:20:38.269Z,99784.66
2019-03-11T08:21:39.669Z,99784.66
2019-03-11T08:22:41.041Z,99779.95
2019-03-11T08:23:42.457Z,99784.82
2019-03-11T08:24:43.835Z,99791.18
2019-03-11T08:25:45.344Z,99787.66
2019-03-11T08:26:46.766Z,99795.68
2019-03-11T08:27:48.284Z,99789.32
2019-03-11T08:28:49.692Z,99795.52
2019-03-11T08:29:51.109Z,99796.86
2019-03-11T08:30:52.523Z,99793.66
2019-03-11T08:31:53.961Z,99794.52
2019-03-11T08:32:55.350Z,99801.20
2019-03-11T08:33:56.849Z,99799.02
2019-03-11T08:34:58.227Z,99795.85
2019-03-11T08:35:59.650Z,99798.05
2019-03-11T08:37:01.162Z,99797.52
2019-03-11T08:38:05.310Z,99794.67
2019-03-11T08:39:08.681Z,99801.03
2019-03-11T08:40:14.485Z,99790.81
2019-03-11T08:41:16.945Z,99792.64
2019-03-11T08:42:18.548Z,99797.99
2019-03-11T08:43:20.026Z,99803.02
2019-03-11T08:44:21.424Z,99800.52
2019-03-11T08:45:22.806Z,99801.34
2019-03-11T08:46:24.203Z,99806.69
2019-03-11T08:47:25.589Z,99809.04
2019-03-11T08:48:27.099Z,99804.70
2019-03-11T08:49:28.510Z,99803.03
2019-03-11T08:50:29.918Z,99796.67
2019-03-11T08:51:31.341Z,99795.00
2019-03-11T08:52:32.871Z,99798.00
2019-03-11T08:53:34.245Z,99789.98
2019-03-11T08:54:35.648Z,99797.00
2019-03-11T08:55:37.022Z,99798.67
2019-03-11T08:56:38.428Z,99789.30
2019-03-11T08:57:41.230Z,99790.64
2019-03-11T08:58:42.956Z,99794.98
2019-03-11T08:59:44.275Z,99798.52
2019-03-11T09:00:45.693Z,99803.53
2019-03-11T09:01:47.212Z,99803.34
2019-03-11T09:02:48.797Z,99808.36
2019-03-11T09:03:50.177Z,99808.55
2019-03-11T09:04:51.644Z,99810.90
2019-03-11T09:05:53.027Z,99814.06
2019-03-11T09:06:54.422Z,99819.59
2019-03-11T09:07:55.914Z,99811.24
2019-03-11T09:08:57.430Z,99814.25
2019-03-11T09:09:58.843Z,99817.08
2019-03-11T09:11:00.260Z,99803.37
2019-03-11T09:12:01.672Z,99808.39
2019-03-11T09:13:03.069Z,99816.76
2019-03-11T09:14:04.436Z,99807.91
2019-03-11T09:15:08.738Z,99812.94
2019-03-11T09:16:10.211Z,99815.28
2019-03-11T09:17:11.718Z,99819.30
2019-03-11T09:18:13.108Z,99820.45
2019-03-11T09:19:14.529Z,99808.41
2019-03-11T09:20:16.839Z,99819.11
2019-03-11T09:21:18.354Z,99813.92
2019-03-11T09:22:19.797Z,99819.97
2019-03-11T09:23:21.205Z,99809.42
2019-03-11T09:24:22.632Z,99810.76
2019-03-11T09:25:25.102Z,99812.09
2019-03-11T09:26:26.544Z,99807.08
2019-03-11T09:27:28.020Z,99810.08
2019-03-11T09:28:29.581Z,99812.42
2019-03-11T09:29:31.120Z,99812.77
2019-03-11T09:30:32.544Z,99814.77
2019-03-11T09:31:33.962Z,99809.25
2019-03-11T09:32:35.367Z,99813.42
2019-03-11T09:33:36.780Z,99818.44
2019-03-11T09:34:38.312Z,99817.44
2019-03-11T09:35:39.827Z,99812.08
2019-03-11T09:36:41.326Z,99809.93
2019-03-11T09:37:42.723Z,99815.77
2019-03-11T09:38:44.116Z,99823.46
2019-03-11T09:39:45.645Z,99822.64
2019-03-11T09:40:47.019Z,99824.98
2019-03-11T09:41:48.675Z,99831.16
2019-03-11T09:42:50.084Z,99829.97
2019-03-11T09:43:51.394Z,99834.83
2019-03-11T09:44:52.904Z,99828.48
2019-03-11T09:45:54.288Z,99827.14
2019-03-11T09:46:55.788Z,99832.00
2019-03-11T09:47:57.170Z,99836.84
2019-03-11T09:48:58.571Z,99836.84
2019-03-11T09:49:59.972Z,99846.88
2019-03-11T09:51:01.428Z,99837.51
2019-03-11T09:52:02.888Z,99835.84
2019-03-11T09:53:04.401Z,99840.67
2019-03-11T09:54:05.821Z,99845.20
2019-03-11T09:55:09.658Z,99827.82
2019-03-11T09:56:11.038Z,99839.52
2019-03-11T09:57:12.435Z,99846.54
2019-03-11T09:58:13.813Z,99845.20
2019-03-11T09:59:15.278Z,99848.88
2019-03-11T10:00:21.999Z,99846.20
2019-03-11T10:01:23.510Z,99845.36
2019-03-11T10:02:24.929Z,99845.20
2019-03-11T10:03:26.439Z,99855.91
2019-03-11T10:04:27.864Z,99845.69
2019-03-11T10:05:29.289Z,99841.19
2019-03-11T10:06:30.757Z,99845.53
2019-03-11T10:07:32.156Z,99847.72
2019-03-11T10:08:33.561Z,99840.52
2019-03-11T10:09:36.067Z,99836.50
2019-03-11T10:10:37.678Z,99849.55
2019-03-11T10:11:39.202Z,99845.53
2019-03-11T10:12:40.692Z,99834.34
2019-03-11T10:13:42.164Z,99842.86
2019-03-11T10:14:43.562Z,99848.20
2019-03-11T10:15:44.950Z,99841.52
2019-03-11T10:16:46.399Z,99842.86
2019-03-11T10:17:48.748Z,99841.19
2019-03-11T10:18:50.492Z,99846.54
2019-03-11T10:19:51.832Z,99849.55
2019-03-11T10:20:53.224Z,99854.90
2019-03-11T10:21:54.609Z,99848.69
2019-03-11T10:22:55.989Z,99849.06
2019-03-11T10:23:59.326Z,99853.07
2019-03-11T10:25:00.653Z,99852.55
2019-03-11T10:26:02.179Z,99850.88
2019-03-11T10:27:03.756Z,99853.89
2019-03-11T10:28:05.143Z,99852.22
2019-03-11T10:29:06.524Z,99853.89
2019-03-11T10:30:11.145Z,99852.89
2019-03-11T10:31:12.673Z,99856.56
2019-03-11T10:32:14.159Z,99848.87
2019-03-11T10:33:15.560Z,99851.55
2019-03-11T10:34:16.832Z,99859.91
2019-03-11T10:35:31.316Z,99850.05
2019-03-11T10:36:22.450Z,99853.55
2019-03-11T10:37:24.008Z,99858.08
2019-03-11T10:38:25.402Z,99857.23
2019-03-11T10:39:26.803Z,99866.59
2019-03-11T10:40:31.370Z,99859.58
2019-03-11T10:41:32.772Z,99868.12
2019-03-11T10:42:34.190Z,99871.45
2019-03-11T10:43:35.648Z,99871.94
2019-03-11T10:44:37.026Z,99876.47
2019-03-11T10:45:38.425Z,99880.30
2019-03-11T10:46:39.845Z,99878.97
2019-03-11T10:47:41.229Z,99881.48
2019-03-11T10:48:42.615Z,99893.01
2019-03-11T10:49:45.001Z,99893.19
2019-03-11T10:50:46.544Z,99891.33
2019-03-11T10:51:47.998Z,99891.33
2019-03-11T10:52:49.587Z,99894.00
2019-03-11T10:53:50.941Z,99893.00
2019-03-11T10:54:52.319Z,99898.20
2019-03-11T10:55:53.826Z,99906.55
2019-03-11T10:56:55.319Z,99902.02
2019-03-11T10:57:56.703Z,99898.20
2019-03-11T10:58:58.093Z,99896.67
2019-03-11T10:59:59.475Z,99898.01
2019-03-11T11:01:01.168Z,99905.38
2019-03-11T11:02:02.772Z,99907.23
2019-03-11T11:03:04.150Z,99917.41
2019-03-11T11:04:05.552Z,99914.41
2019-03-11T11:05:07.931Z,99920.09
2019-03-11T11:06:09.317Z,99920.60
2019-03-11T11:07:10.828Z,99925.44
2019-03-11T11:08:12.299Z,99922.76
2019-03-11T11:09:13.781Z,99924.44
2019-03-11T11:10:15.759Z,99928.44
2019-03-11T11:11:17.147Z,99925.10
2019-03-11T11:12:18.643Z,99932.13
2019-03-11T11:13:20.014Z,99930.63
2019-03-11T11:14:21.456Z,99932.79
2019-03-11T11:15:23.625Z,99939.81
2019-03-11T11:16:25.120Z,99943.34
2019-03-11T11:17:26.632Z,99936.47
2019-03-11T11:18:28.008Z,99938.66
2019-03-11T11:19:29.388Z,99942.48
2019-03-11T11:20:30.794Z,99934.45
2019-03-11T11:21:32.229Z,99937.12
2019-03-11T11:22:33.628Z,99935.31
2019-03-11T11:23:35.008Z,99943.70
2019-03-11T11:24:36.313Z,99946.38
2019-03-11T11:25:39.489Z,99945.04
2019-03-11T11:26:40.892Z,99943.34
2019-03-11T11:27:42.304Z,99956.56
2019-03-11T11:28:43.724Z,99946.50
2019-03-11T11:29:45.118Z,99943.83
2019-03-11T11:30:46.534Z,99940.81
2019-03-11T11:31:47.952Z,99954.04
2019-03-11T11:32:49.657Z,99950.17
2019-03-11T11:33:51.036Z,99953.70
2019-03-11T11:34:52.437Z,99952.37
2019-03-11T11:35:53.918Z,99947.50
2019-03-11T11:36:55.328Z,99962.22
2019-03-11T11:37:56.813Z,99955.53
2019-03-11T11:38:58.603Z,99951.52
2019-03-11T11:40:00.171Z,99956.87
2019-03-11T11:41:01.734Z,99963.07
2019-03-11T11:42:03.546Z,99953.86
2019-03-11T11:43:05.047Z,99959.21
2019-03-11T11:44:06.411Z,99962.07
2019-03-11T11:45:10.831Z,99962.56
2019-03-11T11:46:12.205Z,99956.72
2019-03-11T11:47:13.606Z,99957.54
2019-03-11T11:48:14.992Z,99955.05
2019-03-11T11:49:16.410Z,99963.41
2019-03-11T11:50:23.085Z,99957.20
2019-03-11T11:51:24.471Z,99965.23
2019-03-11T11:52:25.910Z,99957.88
2019-03-11T11:53:27.337Z,99961.88
2019-03-11T11:54:28.717Z,99968.91
2019-03-11T11:55:30.412Z,99969.91
2019-03-11T11:56:31.785Z,99961.88
2019-03-11T11:57:33.186Z,99968.58
2019-03-11T11:58:34.611Z,99976.45
2019-03-11T11:59:36.027Z,99974.27
2019-03-11T12:00:39.338Z,99972.11
2019-03-11T12:01:40.744Z,99972.44
2019-03-11T12:02:42.151Z,99978.61
2019-03-11T12:03:43.552Z,99983.96
2019-03-11T12:04:44.940Z,99971.92
2019-03-11T12:05:46.334Z,99975.93
2019-03-11T12:06:47.713Z,99966.56
2019-03-11T12:07:49.234Z,99974.95
2019-03-11T12:08:50.764Z,99982.98
2019-03-11T12:09:52.248Z,99978.97
2019-03-11T12:10:53.672Z,99980.64
2019-03-11T12:12:00.697Z,99985.52
2019-03-11T12:13:02.216Z,99988.52
2019-03-11T12:14:03.615Z,99990.71
2019-03-11T12:15:08.497Z,99987.18
2019-03-11T12:16:09.992Z,99988.86